Airfield :
LOGIN :

Register | Disclaimer

   EN    FR    IT 

 










Legend :    VFR   Marginal VFR   IFR   Intensive IFR   Very Intensive IFR
Visi :
Ceiling :
>= 8 km
>= 3000ft
5 to 8 km
1000 to 3000 ft
1500m to 5 km
500 to 1000 ft
800 to 1500m
200 to 500 ft
< 800m
< 200 ft
Symbols :   Thunderstorms  Fog  Heavy snow  Heavy precipitations  Wind > 20 kt
SIGMETs :     Misc.  Thunderstorms  Icing  Turbulence  Mountain Waves  Volcanic Ashes






- Airport Elevation : 1966 ft
- IATA code : SGE


EDGS - Siegerland

CURRENT METAR :
  • 181420Z 31011KT 9999 FEW035 07/M01 Q1017

EXPIRED METARs :
  • 181350Z 32012KT 290V350 9999 BKN037 BKN042 07/M00 Q1017
  • 181320Z 30014KT 9999 BKN044 08/M01 Q1017
  • 181250Z 31008KT 280V340 9999 SCT036 08/00 Q1017
  • 181220Z 32010KT 280V350 9999 FEW030 SCT042 07/M02 Q1017
  • 181150Z 32009KT 290V350 9999 SCT028 BKN035 BKN045 06/00 Q1017
  • 181120Z 32009KT 290V350 9999 FEW021 BKN047 05/M01 Q1017
  • 181050Z 31009KT 290V350 9999 SCT026 05/00 Q1017
  • 181020Z 32009KT 9999 FEW016 BKN022 BKN030 04/00 Q1016
  • 180950Z 32009KT 9999 FEW016 BKN022 BKN030 04/01 Q1016

TAF TAF EDGS
Valid from the 18 at 15:00 until the 19 at 00:00 UTC


181400Z 1815/1824 30014KT 9999 SCT040
BECMG 1815/1818 28009KT



MET'MAP, your aeronautical weather chart ! - Copyright ORBIFLY December 2007 - Disclaimer

ORBIFLY MET'MAP TEAM :

Programming & Development : Alexandra Zaïnal
Original concept : Baudouin d'Aumeries
Technical & hardware support : Manuel Goepfert
Assistance : Marc-Olivier Méhu




SOURCES & CREDITS :

   NOAA